Time;durP1;ratioP1;P1;durP2;ratioP2;P2;SDS_P1;SDS_P2;PMS_P1;PMS_P2;Temp;Humidity;BMP_temperature;BMP_pressure;BME280_temperature;BME280_humidity;BME280_pressure;Samples;Min_cycle;Max_cycle;Signal;HPM_P1;HPM_P2
2022/11/23 00:00:22;;;;;;;11.85;4.40;;;3.70;99.90;;;;;;5047212;28;20063;-68
2022/11/23 00:02:52;;;;;;;10.48;4.82;;;3.40;99.90;;;;;;5041056;28;20041;-68
2022/11/23 00:05:18;;;;;;;16.90;4.82;;;3.30;99.90;;;;;;5035231;28;20037;-68
2022/11/23 00:07:44;;;;;;;13.93;5.20;;;3.10;99.90;;;;;;5028319;28;20037;-71
2022/11/23 00:10:09;;;;;;;8.02;4.65;;;3.00;99.90;;;;;;5037988;28;20397;-68
2022/11/23 00:12:35;;;;;;;9.27;4.65;;;3.00;99.90;;;;;;5048459;28;20517;-68
2022/11/23 00:15:00;;;;;;;13.52;5.63;;;2.90;99.90;;;;;;5034485;28;20033;-69
2022/11/23 00:17:26;;;;;;;15.13;5.57;;;2.90;99.90;;;;;;5042823;28;20037;-69
2022/11/23 00:19:52;;;;;;;10.00;4.60;;;2.80;99.90;;;;;;5037822;28;20433;-66
2022/11/23 00:22:17;;;;;;;12.70;4.95;;;2.80;99.90;;;;;;5031816;28;20030;-68
2022/11/23 00:24:43;;;;;;;13.40;4.90;;;2.80;99.90;;;;;;5034393;28;20030;-72
2022/11/23 00:27:08;;;;;;;14.02;5.00;;;2.80;99.90;;;;;;5030607;28;20100;-68
2022/11/23 00:29:34;;;;;;;9.65;4.60;;;2.80;99.90;;;;;;5046036;28;20041;-68
2022/11/23 00:32:00;;;;;;;11.30;5.15;;;2.80;99.90;;;;;;5043811;28;20025;-71
2022/11/23 00:34:25;;;;;;;13.90;5.63;;;2.80;99.90;;;;;;5030227;28;20057;-68
2022/11/23 00:36:51;;;;;;;18.15;6.40;;;2.80;99.90;;;;;;5044231;28;20029;-68
2022/11/23 00:39:16;;;;;;;12.00;5.30;;;2.70;99.90;;;;;;5035796;28;20816;-68
2022/11/23 00:41:42;;;;;;;17.05;6.50;;;2.70;99.90;;;;;;5030522;28;20029;-69
2022/11/23 00:44:08;;;;;;;14.65;5.30;;;2.70;99.90;;;;;;5036840;28;20533;-68
2022/11/23 00:46:33;;;;;;;12.38;5.47;;;2.60;99.90;;;;;;5031648;28;20101;-70
2022/11/23 00:48:59;;;;;;;17.73;6.75;;;2.60;99.90;;;;;;5037265;28;20040;-69
2022/11/23 00:51:30;;;;;;;14.45;5.82;;;2.70;99.90;;;;;;5030952;28;20042;-69
2022/11/23 00:53:57;;;;;;;12.52;5.93;;;2.60;99.90;;;;;;5036927;28;20025;-68
2022/11/23 00:56:22;;;;;;;19.17;5.70;;;2.60;99.90;;;;;;5037986;28;20180;-69
2022/11/23 00:58:49;;;;;;;13.07;5.72;;;2.60;99.90;;;;;;5036895;28;20115;-72
2022/11/23 01:01:16;;;;;;;13.75;5.38;;;2.60;99.90;;;;;;5031593;28;20506;-69
2022/11/23 01:03:48;;;;;;;13.35;5.78;;;2.60;99.90;;;;;;5032730;28;20026;-68
2022/11/23 01:06:16;;;;;;;16.90;6.20;;;2.50;99.90;;;;;;5030412;28;20033;-68
2022/11/23 01:08:42;;;;;;;15.52;6.28;;;2.50;99.90;;;;;;5039341;28;20623;-68
2022/11/23 01:11:11;;;;;;;15.80;6.47;;;2.50;99.90;;;;;;5049810;28;20028;-68
2022/11/23 01:13:38;;;;;;;14.98;6.40;;;2.50;99.90;;;;;;5042672;28;20041;-68
2022/11/23 01:16:06;;;;;;;17.13;6.85;;;2.40;99.90;;;;;;5037517;28;20078;-68
2022/11/23 01:18:32;;;;;;;12.13;5.45;;;2.40;99.90;;;;;;5050027;28;20056;-68
2022/11/23 01:21:00;;;;;;;16.30;6.03;;;2.30;99.90;;;;;;5040716;28;20098;-68
2022/11/23 01:23:29;;;;;;;15.80;5.50;;;2.30;99.90;;;;;;5045274;28;20033;-68
2022/11/23 01:25:55;;;;;;;14.93;5.45;;;2.30;99.90;;;;;;5040935;28;20025;-68
2022/11/23 01:28:20;;;;;;;11.75;5.20;;;2.40;99.90;;;;;;5040748;28;20351;-68
2022/11/23 01:30:46;;;;;;;12.48;5.63;;;2.40;99.90;;;;;;5030262;28;20045;-71
2022/11/23 01:33:12;;;;;;;13.23;5.60;;;2.40;99.90;;;;;;5034896;28;20044;-68
2022/11/23 01:35:38;;;;;;;14.48;5.30;;;2.40;99.90;;;;;;5031019;28;20036;-68
2022/11/23 01:38:04;;;;;;;12.75;5.53;;;2.30;99.90;;;;;;5038812;28;20037;-67
2022/11/23 01:40:30;;;;;;;16.15;5.70;;;2.30;99.90;;;;;;5051050;28;20033;-69
2022/11/23 01:42:57;;;;;;;16.50;6.20;;;2.30;99.90;;;;;;5042189;28;20378;-67
2022/11/23 01:45:59;;;;;;;17.33;7.28;;;2.30;99.90;;;;;;5032125;28;20490;-68
2022/11/23 01:48:41;;;;;;;15.52;6.68;;;2.20;99.90;;;;;;4973798;28;20504;-67
2022/11/23 01:51:22;;;;;;;13.98;6.55;;;2.20;99.90;;;;;;5010711;28;20130;-69
2022/11/23 01:53:51;;;;;;;22.60;7.82;;;2.20;99.90;;;;;;5030485;28;20471;-71
2022/11/23 01:56:21;;;;;;;16.17;7.72;;;2.20;99.90;;;;;;5037643;28;20083;-68
2022/11/23 01:58:51;;;;;;;17.23;7.55;;;2.20;99.90;;;;;;5029833;28;20680;-68
2022/11/23 02:01:17;;;;;;;20.52;7.70;;;2.20;99.90;;;;;;5030374;28;20410;-68
2022/11/23 02:03:45;;;;;;;17.02;7.63;;;2.20;99.90;;;;;;5030848;28;20029;-68
2022/11/23 02:06:15;;;;;;;16.60;7.40;;;2.10;99.90;;;;;;5037650;28;20025;-69
2022/11/23 02:08:41;;;;;;;19.98;7.57;;;2.10;99.90;;;;;;5046235;28;20036;-69
2022/11/23 02:11:08;;;;;;;17.70;7.00;;;2.10;99.90;;;;;;5044020;28;20029;-68
2022/11/23 02:13:34;;;;;;;16.15;7.50;;;2.10;99.90;;;;;;5040933;28;20060;-66
2022/11/23 02:16:00;;;;;;;15.27;6.65;;;2.10;99.90;;;;;;5036767;28;20032;-69
2022/11/23 02:18:29;;;;;;;17.70;7.97;;;2.20;99.90;;;;;;5045631;28;20469;-68
2022/11/23 02:20:56;;;;;;;17.38;6.78;;;2.20;99.90;;;;;;5043835;28;20042;-68
2022/11/23 02:23:56;;;;;;;15.05;7.00;;;2.20;99.90;;;;;;5037134;28;20109;-68
2022/11/23 02:26:27;;;;;;;18.17;7.10;;;2.10;99.90;;;;;;5042646;28;20068;-68
2022/11/23 02:29:07;;;;;;;17.10;7.85;;;2.10;99.90;;;;;;5031543;28;20132;-71
2022/11/23 02:31:33;;;;;;;14.90;6.07;;;2.00;99.90;;;;;;5044771;28;20128;-67
2022/11/23 02:33:58;;;;;;;17.63;7.55;;;2.00;99.90;;;;;;5043121;28;20355;-67
2022/11/23 02:36:27;;;;;;;15.77;7.30;;;1.90;99.90;;;;;;5040944;28;20048;-67
2022/11/23 02:38:55;;;;;;;14.30;6.60;;;1.90;99.90;;;;;;5039408;28;20071;-71
2022/11/23 02:41:20;;;;;;;14.55;7.20;;;1.90;99.90;;;;;;5042972;28;20037;-69
2022/11/23 02:43:50;;;;;;;17.23;6.57;;;1.90;99.90;;;;;;5035035;28;20044;-69
2022/11/23 02:46:16;;;;;;;15.23;6.20;;;1.90;99.90;;;;;;5027745;28;20442;-67
2022/11/23 02:48:42;;;;;;;11.95;5.88;;;1.90;99.90;;;;;;5033896;28;20052;-68
2022/11/23 02:51:07;;;;;;;14.30;6.10;;;1.80;99.90;;;;;;5044834;28;20021;-67
2022/11/23 02:53:33;;;;;;;13.88;6.30;;;1.80;99.90;;;;;;5030694;28;20364;-68
2022/11/23 02:55:58;;;;;;;13.10;6.13;;;1.80;99.90;;;;;;5045865;28;20025;-68
2022/11/23 02:58:24;;;;;;;11.25;5.80;;;1.90;99.90;;;;;;5032368;28;20037;-68
2022/11/23 03:00:50;;;;;;;14.85;6.82;;;1.90;99.90;;;;;;5027204;28;20132;-68
2022/11/23 03:03:15;;;;;;;13.52;6.43;;;1.90;99.90;;;;;;5028191;28;20800;-67
2022/11/23 03:05:41;;;;;;;12.75;6.70;;;1.90;99.90;;;;;;5037474;28;20432;-68
2022/11/23 03:08:06;;;;;;;15.25;6.55;;;1.90;99.90;;;;;;5048817;28;20037;-68
2022/11/23 03:10:32;;;;;;;15.13;6.90;;;2.00;99.90;;;;;;5039505;28;20388;-69
2022/11/23 03:12:58;;;;;;;14.57;6.63;;;2.00;99.90;;;;;;5027937;28;20140;-66
2022/11/23 03:15:24;;;;;;;19.02;6.55;;;2.00;99.90;;;;;;5030280;28;20038;-68
2022/11/23 03:17:50;;;;;;;15.27;6.43;;;1.90;99.90;;;;;;5029192;28;20037;-67
2022/11/23 03:20:16;;;;;;;13.55;6.57;;;1.80;99.90;;;;;;5032075;28;20459;-69
2022/11/23 03:22:42;;;;;;;15.88;6.80;;;1.80;99.90;;;;;;5036051;28;20466;-68
2022/11/23 03:25:08;;;;;;;15.18;7.32;;;1.80;99.90;;;;;;5035942;28;20036;-68
2022/11/23 03:27:33;;;;;;;14.23;6.75;;;1.70;99.90;;;;;;5028389;28;20029;-67
2022/11/23 03:29:59;;;;;;;13.63;6.28;;;1.70;99.90;;;;;;5028540;28;20039;-67
2022/11/23 03:32:25;;;;;;;19.38;7.82;;;1.70;99.90;;;;;;5041911;28;20074;-68
2022/11/23 03:34:51;;;;;;;13.07;6.78;;;1.70;99.90;;;;;;5048967;28;20084;-69
2022/11/23 03:37:16;;;;;;;18.85;6.60;;;1.70;99.90;;;;;;5047266;28;20392;-68
2022/11/23 03:39:42;;;;;;;18.15;6.85;;;1.70;99.90;;;;;;5038593;28;20037;-68
2022/11/23 03:42:07;;;;;;;18.42;7.00;;;1.70;99.90;;;;;;5032433;28;20064;-67
2022/11/23 03:44:33;;;;;;;18.02;6.65;;;1.70;99.90;;;;;;5025563;28;20029;-67
2022/11/23 03:46:59;;;;;;;15.77;6.55;;;1.70;99.90;;;;;;5027658;28;20029;-68
2022/11/23 03:49:24;;;;;;;19.17;6.60;;;1.80;99.90;;;;;;5032039;28;20029;-67
2022/11/23 03:51:50;;;;;;;16.50;6.50;;;1.80;99.90;;;;;;5026924;28;20120;-69
2022/11/23 03:54:15;;;;;;;10.73;6.00;;;1.80;99.90;;;;;;5027356;28;20032;-67
2022/11/23 03:56:41;;;;;;;14.95;6.45;;;1.80;99.90;;;;;;5045925;28;20032;-70
2022/11/23 03:59:07;;;;;;;18.33;5.97;;;1.80;99.90;;;;;;5043055;28;20041;-68
2022/11/23 04:01:33;;;;;;;15.85;5.93;;;1.80;99.90;;;;;;5032319;28;20029;-68
2022/11/23 04:03:58;;;;;;;11.35;5.30;;;1.90;99.90;;;;;;5031943;28;20432;-69
2022/11/23 04:06:24;;;;;;;11.63;4.90;;;1.90;99.90;;;;;;5048560;28;20021;-68
2022/11/23 04:08:49;;;;;;;11.93;4.95;;;2.00;99.90;;;;;;5029256;28;20033;-68
2022/11/23 04:11:15;;;;;;;13.38;4.55;;;2.00;99.90;;;;;;5024646;28;20034;-67
2022/11/23 04:13:41;;;;;;;11.45;5.22;;;2.00;99.90;;;;;;5026401;28;20037;-69
2022/11/23 04:16:07;;;;;;;13.15;5.20;;;2.00;99.90;;;;;;5030566;28;20126;-67
2022/11/23 04:18:32;;;;;;;13.80;5.57;;;2.00;99.90;;;;;;5024330;28;20060;-69
2022/11/23 04:20:58;;;;;;;11.68;5.40;;;2.00;99.90;;;;;;5032313;28;20025;-71
2022/11/23 04:23:24;;;;;;;12.52;5.60;;;2.00;99.90;;;;;;5047627;28;20029;-67
2022/11/23 04:25:49;;;;;;;14.55;6.10;;;2.10;99.90;;;;;;5045240;28;20037;-69
2022/11/23 04:28:15;;;;;;;13.38;5.65;;;2.10;99.90;;;;;;5045294;28;20040;-67
2022/11/23 04:30:40;;;;;;;11.52;5.40;;;2.10;99.90;;;;;;5043326;28;20037;-67
2022/11/23 04:33:06;;;;;;;16.13;5.45;;;2.10;99.90;;;;;;5044167;28;20083;-67
2022/11/23 04:35:33;;;;;;;11.32;5.65;;;2.00;99.90;;;;;;5048432;28;20667;-67
2022/11/23 04:37:58;;;;;;;10.60;5.35;;;2.00;99.90;;;;;;5032002;28;20034;-71
2022/11/23 04:40:24;;;;;;;10.90;5.43;;;2.00;99.90;;;;;;5027944;28;20033;-65
2022/11/23 04:42:50;;;;;;;10.23;5.50;;;2.00;99.90;;;;;;5029677;28;20033;-66
2022/11/23 04:45:15;;;;;;;13.18;5.82;;;2.00;99.90;;;;;;5029066;28;20037;-67
2022/11/23 04:47:41;;;;;;;11.40;5.72;;;2.00;99.90;;;;;;5028437;28;20037;-69
2022/11/23 04:50:07;;;;;;;13.25;6.43;;;2.00;99.90;;;;;;5029746;28;20425;-66
2022/11/23 04:52:33;;;;;;;13.35;4.90;;;2.00;99.90;;;;;;5048309;28;20064;-68
2022/11/23 04:54:58;;;;;;;9.77;5.25;;;2.00;99.90;;;;;;5043368;28;20025;-70
2022/11/23 04:57:24;;;;;;;15.15;5.60;;;2.00;99.90;;;;;;5040418;28;20305;-67
2022/11/23 04:59:49;;;;;;;11.02;5.60;;;2.00;99.90;;;;;;5040583;28;20040;-71
2022/11/23 05:02:15;;;;;;;13.88;6.78;;;2.00;99.90;;;;;;5012692;28;20025;-69
2022/11/23 05:04:41;;;;;;;13.23;6.35;;;2.00;99.90;;;;;;5031505;28;20037;-71
2022/11/23 05:07:06;;;;;;;14.73;6.50;;;2.00;99.90;;;;;;5030948;28;20791;-66
2022/11/23 05:09:32;;;;;;;14.02;6.50;;;2.00;99.90;;;;;;5029896;28;20037;-68
2022/11/23 05:11:58;;;;;;;12.00;5.75;;;2.10;99.90;;;;;;5038341;28;20068;-67
2022/11/23 05:14:23;;;;;;;11.07;5.68;;;2.10;99.90;;;;;;5029745;28;20044;-66
2022/11/23 05:16:49;;;;;;;16.27;6.75;;;2.10;99.90;;;;;;5030241;28;20083;-66
2022/11/23 05:19:15;;;;;;;18.23;6.88;;;2.10;99.90;;;;;;5029392;28;20430;-69
2022/11/23 05:21:40;;;;;;;14.10;6.30;;;2.20;99.90;;;;;;5046192;28;20778;-68
2022/11/23 05:24:06;;;;;;;14.07;6.57;;;2.20;99.90;;;;;;5035097;28;20474;-70
2022/11/23 05:26:32;;;;;;;16.13;6.55;;;2.10;99.90;;;;;;5038219;28;20056;-69
2022/11/23 05:28:57;;;;;;;13.20;5.95;;;2.10;99.90;;;;;;5028698;28;20033;-70
2022/11/23 05:31:23;;;;;;;13.80;6.35;;;2.10;99.90;;;;;;5041259;28;20025;-67
2022/11/23 05:33:48;;;;;;;12.60;5.70;;;2.10;99.90;;;;;;5028149;28;20034;-68
2022/11/23 05:36:14;;;;;;;13.18;5.97;;;2.10;99.90;;;;;;5046342;28;20121;-69
2022/11/23 05:38:40;;;;;;;14.13;6.03;;;2.10;99.90;;;;;;5051379;28;20432;-69
2022/11/23 05:41:06;;;;;;;15.00;6.10;;;2.10;99.90;;;;;;5049218;28;20064;-67
2022/11/23 05:43:32;;;;;;;12.55;6.05;;;2.10;99.90;;;;;;5031532;28;20034;-69
2022/11/23 05:45:59;;;;;;;15.15;6.28;;;2.10;99.90;;;;;;5038785;28;20021;-66
2022/11/23 05:48:24;;;;;;;13.48;6.35;;;2.20;99.90;;;;;;5035130;28;20120;-71
2022/11/23 05:50:50;;;;;;;14.65;5.95;;;2.20;99.90;;;;;;5029430;28;20112;-68
2022/11/23 05:53:16;;;;;;;14.23;6.30;;;2.20;99.90;;;;;;5041982;28;20033;-69
2022/11/23 05:55:42;;;;;;;14.10;6.22;;;2.20;99.90;;;;;;5031764;28;20037;-68
2022/11/23 05:58:07;;;;;;;17.83;8.20;;;2.30;99.90;;;;;;5039913;28;20039;-69
2022/11/23 06:00:33;;;;;;;19.45;8.93;;;2.20;99.90;;;;;;5041063;28;20030;-68
2022/11/23 06:03:00;;;;;;;24.15;10.93;;;2.30;99.90;;;;;;5044799;28;20121;-69
2022/11/23 06:05:26;;;;;;;23.17;9.82;;;2.20;99.90;;;;;;5040369;28;20036;-68
2022/11/23 06:07:52;;;;;;;20.35;9.70;;;2.30;99.90;;;;;;5031933;28;20041;-68
2022/11/23 06:10:18;;;;;;;27.83;12.13;;;2.30;99.90;;;;;;5027328;28;20037;-69
2022/11/23 06:12:44;;;;;;;35.88;15.10;;;2.30;99.90;;;;;;5042118;28;20421;-69
2022/11/23 06:15:11;;;;;;;42.05;16.05;;;2.30;99.90;;;;;;5047147;28;20064;-67
2022/11/23 06:17:37;;;;;;;31.60;14.48;;;2.30;99.90;;;;;;5034971;28;20398;-68
2022/11/23 06:20:05;;;;;;;26.15;11.38;;;2.40;99.90;;;;;;5033661;28;20030;-72
2022/11/23 06:22:31;;;;;;;26.27;10.70;;;2.40;99.90;;;;;;5043082;28;20057;-69
2022/11/23 06:24:57;;;;;;;17.60;8.10;;;2.40;99.90;;;;;;5041046;28;20072;-69
2022/11/23 06:27:22;;;;;;;14.23;7.32;;;2.40;99.90;;;;;;5043099;28;20032;-70
2022/11/23 06:29:48;;;;;;;14.65;7.40;;;2.30;99.90;;;;;;5047043;28;20377;-68
2022/11/23 06:32:14;;;;;;;21.73;9.00;;;2.20;99.90;;;;;;5035949;28;20031;-67
2022/11/23 06:34:40;;;;;;;23.20;9.82;;;2.20;99.90;;;;;;5035182;28;20028;-69
2022/11/23 06:37:05;;;;;;;21.60;8.18;;;2.20;99.90;;;;;;5039290;28;20787;-74
2022/11/23 06:39:31;;;;;;;14.75;6.93;;;2.20;99.90;;;;;;5027818;28;20448;-70
2022/11/23 06:41:57;;;;;;;14.75;7.25;;;2.20;99.90;;;;;;5030394;28;20117;-69
2022/11/23 06:44:22;;;;;;;17.20;8.18;;;2.20;99.90;;;;;;5041557;28;20045;-67
2022/11/23 06:46:48;;;;;;;19.27;8.00;;;2.20;99.90;;;;;;5043518;28;20078;-68
2022/11/23 06:49:14;;;;;;;18.73;7.93;;;2.20;99.90;;;;;;5044255;28;20059;-69
2022/11/23 06:51:40;;;;;;;14.80;7.05;;;2.10;99.90;;;;;;5032204;28;20029;-69
2022/11/23 06:54:06;;;;;;;20.10;9.77;;;2.10;99.90;;;;;;5040564;28;20033;-73
2022/11/23 06:56:31;;;;;;;20.02;8.88;;;2.10;99.90;;;;;;5046798;28;20036;-71
2022/11/23 06:58:57;;;;;;;23.60;11.13;;;2.20;99.90;;;;;;5049868;28;20102;-68
2022/11/23 07:01:22;;;;;;;25.63;11.95;;;2.10;99.90;;;;;;5040774;28;20413;-68
2022/11/23 07:03:48;;;;;;;29.27;13.00;;;2.20;99.90;;;;;;5040711;28;20053;-66
2022/11/23 07:06:13;;;;;;;27.95;11.98;;;2.20;99.90;;;;;;5046593;28;20029;-67
2022/11/23 07:08:42;;;;;;;26.90;11.88;;;2.20;99.90;;;;;;5034480;28;20041;-67
2022/11/23 07:11:09;;;;;;;32.58;14.00;;;2.20;99.90;;;;;;5029059;28;20029;-74
2022/11/23 07:13:35;;;;;;;34.65;12.00;;;2.20;99.90;;;;;;5038862;28;20049;-68
2022/11/23 07:16:01;;;;;;;29.42;10.95;;;2.20;99.90;;;;;;5042479;28;20052;-71
2022/11/23 07:18:27;;;;;;;26.50;12.30;;;2.10;99.90;;;;;;5027734;28;20623;-70
2022/11/23 07:20:53;;;;;;;24.70;11.90;;;2.10;99.90;;;;;;5049361;28;20115;-67
2022/11/23 07:23:19;;;;;;;29.85;12.85;;;2.10;99.90;;;;;;5042796;28;20633;-67
2022/11/23 07:25:45;;;;;;;33.83;15.35;;;2.10;99.90;;;;;;5029779;28;20037;-65
2022/11/23 07:28:13;;;;;;;41.85;16.70;;;2.10;99.90;;;;;;5030185;28;20701;-74
2022/11/23 07:30:39;;;;;;;42.60;16.55;;;2.20;99.90;;;;;;5008885;28;20495;-67
2022/11/23 07:33:07;;;;;;;42.28;16.98;;;2.20;99.90;;;;;;5029045;28;20068;-69
2022/11/23 07:35:33;;;;;;;41.50;17.38;;;2.20;99.90;;;;;;5047313;28;20028;-68
2022/11/23 07:37:59;;;;;;;38.78;16.38;;;2.20;99.90;;;;;;5030304;28;20029;-68
2022/11/23 07:40:26;;;;;;;32.22;14.65;;;2.20;99.90;;;;;;5041902;28;20072;-69
2022/11/23 07:42:51;;;;;;;30.45;13.45;;;2.20;99.90;;;;;;5037597;28;20052;-73
2022/11/23 07:45:17;;;;;;;26.45;13.70;;;2.20;99.90;;;;;;5040628;28;20041;-67
2022/11/23 07:47:43;;;;;;;25.33;12.57;;;2.20;99.90;;;;;;5037861;28;20064;-68
2022/11/23 07:50:11;;;;;;;25.58;12.32;;;2.20;99.90;;;;;;5045315;28;20397;-73
2022/11/23 07:52:37;;;;;;;22.33;11.10;;;2.10;99.90;;;;;;5043764;28;20029;-69
2022/11/23 07:55:03;;;;;;;24.73;11.52;;;2.10;99.90;;;;;;5027482;28;20111;-69
2022/11/23 07:57:29;;;;;;;25.85;11.48;;;2.10;99.90;;;;;;5034156;28;20720;-69
2022/11/23 07:59:54;;;;;;;25.75;11.27;;;2.20;99.90;;;;;;5045084;28;20056;-69
2022/11/23 08:02:20;;;;;;;26.33;12.20;;;2.20;99.90;;;;;;5027528;28;20030;-68
2022/11/23 08:04:46;;;;;;;23.90;11.50;;;2.20;99.90;;;;;;5033301;28;20212;-68
2022/11/23 08:07:11;;;;;;;25.63;11.98;;;2.30;99.90;;;;;;5022699;28;20376;-75
2022/11/23 08:09:37;;;;;;;25.80;12.05;;;2.30;99.90;;;;;;5028028;28;20033;-74
2022/11/23 08:12:03;;;;;;;26.25;12.68;;;2.30;99.90;;;;;;5024658;28;20061;-68
2022/11/23 08:14:28;;;;;;;26.83;12.50;;;2.40;99.90;;;;;;5026925;28;20040;-68
2022/11/23 08:16:54;;;;;;;35.40;15.38;;;2.40;99.90;;;;;;5028131;28;20045;-67
2022/11/23 08:19:20;;;;;;;31.20;14.82;;;2.50;99.90;;;;;;5024603;28;20212;-70
2022/11/23 08:21:45;;;;;;;27.63;12.68;;;2.50;99.90;;;;;;5045837;28;20126;-67
2022/11/23 08:24:11;;;;;;;27.90;11.90;;;2.50;99.90;;;;;;5047462;28;20102;-74
2022/11/23 08:26:37;;;;;;;40.47;17.08;;;2.60;99.90;;;;;;5037661;28;20132;-68
2022/11/23 08:29:03;;;;;;;35.03;16.10;;;2.70;99.90;;;;;;5028483;28;20115;-68
2022/11/23 08:31:29;;;;;;;32.50;15.43;;;2.80;99.90;;;;;;5034960;28;20032;-67
2022/11/23 08:33:54;;;;;;;26.08;12.75;;;2.90;99.90;;;;;;5041206;28;20034;-69
2022/11/23 08:36:20;;;;;;;21.42;10.10;;;3.10;99.90;;;;;;5027958;28;20067;-69
2022/11/23 08:38:46;;;;;;;25.38;10.52;;;3.20;99.90;;;;;;5043416;28;20037;-68
2022/11/23 08:41:11;;;;;;;20.55;10.85;;;3.40;99.90;;;;;;5033813;28;20045;-74
2022/11/23 08:43:37;;;;;;;20.80;10.15;;;3.50;99.90;;;;;;5018451;28;20042;-68
2022/11/23 08:46:04;;;;;;;18.63;9.77;;;3.60;99.90;;;;;;5012554;28;20030;-66
2022/11/23 08:48:30;;;;;;;20.42;9.90;;;3.60;99.90;;;;;;5030007;28;20457;-69
2022/11/23 08:50:59;;;;;;;24.02;12.18;;;3.70;99.90;;;;;;5039901;28;20036;-65
2022/11/23 08:53:25;;;;;;;25.30;10.73;;;3.70;99.90;;;;;;5011495;28;20038;-68
2022/11/23 08:55:50;;;;;;;19.45;9.95;;;3.70;99.90;;;;;;5013946;28;20030;-74
2022/11/23 08:58:16;;;;;;;24.95;11.52;;;3.70;99.90;;;;;;5029489;28;20501;-73
2022/11/23 09:00:42;;;;;;;21.30;11.00;;;3.80;99.90;;;;;;5048239;28;20464;-67
2022/11/23 09:03:07;;;;;;;24.85;11.30;;;3.80;99.90;;;;;;5027416;28;20112;-67
2022/11/23 09:05:36;;;;;;;23.85;10.98;;;3.90;99.90;;;;;;5033305;28;20088;-67
2022/11/23 09:08:01;;;;;;;20.48;9.10;;;3.90;99.90;;;;;;5031558;28;20048;-70
2022/11/23 09:10:27;;;;;;;20.17;8.85;;;4.00;99.90;;;;;;5046425;28;20033;-67
2022/11/23 09:12:53;;;;;;;21.83;10.45;;;4.10;99.90;;;;;;5051438;28;20056;-66
2022/11/23 09:15:19;;;;;;;27.60;11.88;;;4.40;99.90;;;;;;5032239;28;20486;-67
2022/11/23 09:17:45;;;;;;;26.45;13.00;;;4.70;99.90;;;;;;5030142;28;20055;-66
2022/11/23 09:20:11;;;;;;;23.02;10.73;;;5.10;99.90;;;;;;5041700;28;20037;-65
2022/11/23 09:22:37;;;;;;;23.33;9.85;;;5.40;99.90;;;;;;5050999;28;20097;-68
2022/11/23 09:25:04;;;;;;;16.05;7.38;;;5.70;99.90;;;;;;5041800;28;20040;-67
2022/11/23 09:27:29;;;;;;;15.40;4.25;;;5.90;99.90;;;;;;5030525;28;20579;-72
2022/11/23 09:29:55;;;;;;;13.00;7.07;;;6.10;99.90;;;;;;5029183;28;20057;-66
2022/11/23 09:32:21;;;;;;;10.15;4.35;;;6.30;99.90;;;;;;5028022;28;20167;-70
2022/11/23 09:34:46;;;;;;;11.05;4.93;;;6.50;99.90;;;;;;5036265;28;20032;-67
2022/11/23 09:37:12;;;;;;;12.85;2.90;;;6.70;99.90;;;;;;5047959;28;20041;-68
2022/11/23 09:39:38;;;;;;;9.80;3.63;;;6.80;99.90;;;;;;5030673;28;20559;-68
2022/11/23 09:42:08;;;;;;;10.32;3.83;;;6.90;99.90;;;;;;5030721;28;20029;-65
2022/11/23 09:45:00;;;;;;;12.95;4.18;;;6.90;99.90;;;;;;5047446;28;20039;-65
2022/11/23 09:47:45;;;;;;;10.48;3.22;;;7.00;99.90;;;;;;5026546;28;20095;-71
2022/11/23 09:51:08;;;;;;;10.63;3.25;;;7.20;99.90;;;;;;5034402;28;20036;-67
2022/11/23 09:53:49;;;;;;;11.93;3.35;;;7.40;99.90;;;;;;5021976;28;20534;-65
2022/11/23 09:56:26;;;;;;;9.18;2.75;;;7.60;99.90;;;;;;5036801;28;20562;-66
2022/11/23 09:58:54;;;;;;;15.00;5.50;;;7.80;99.90;;;;;;5041449;28;20484;-70
2022/11/23 10:01:21;;;;;;;9.38;4.35;;;8.00;99.90;;;;;;5046438;28;20041;-73
2022/11/23 10:03:47;;;;;;;11.48;2.92;;;8.10;99.90;;;;;;5034090;28;20425;-68
2022/11/23 10:06:24;;;;;;;7.03;2.42;;;8.20;99.90;;;;;;5035954;28;20482;-67
2022/11/23 10:09:05;;;;;;;4.57;2.00;;;8.40;99.90;;;;;;5023034;28;20041;-69
2022/11/23 10:11:43;;;;;;;5.90;1.73;;;8.40;99.90;;;;;;5042627;28;20080;-67
2022/11/23 10:14:14;;;;;;;6.85;1.50;;;8.60;99.90;;;;;;5049833;28;20478;-66
2022/11/23 10:16:51;;;;;;;7.35;1.48;;;8.80;99.90;;;;;;5049431;28;20208;-67
2022/11/23 10:19:17;;;;;;;8.02;1.50;;;8.90;99.90;;;;;;5045986;28;20171;-75
2022/11/23 10:22:10;;;;;;;3.92;1.08;;;8.90;99.90;;;;;;5049845;28;20107;-66
2022/11/23 10:24:44;;;;;;;9.52;1.30;;;9.00;99.90;;;;;;5037677;28;20037;-68
2022/11/23 10:27:24;;;;;;;5.15;1.23;;;9.00;99.90;;;;;;5047098;28;20460;-66
2022/11/23 10:29:52;;;;;;;6.57;1.35;;;9.10;99.90;;;;;;5048785;28;20025;-64
2022/11/23 10:32:40;;;;;;;5.53;1.65;;;9.10;99.90;;;;;;5045790;28;20029;-75
2022/11/23 10:35:10;;;;;;;6.45;1.63;;;9.30;99.90;;;;;;5037895;28;20540;-67
2022/11/23 10:37:38;;;;;;;3.35;1.45;;;9.30;99.90;;;;;;5044739;28;20060;-68
2022/11/23 10:40:14;;;;;;;13.45;1.77;;;9.50;99.90;;;;;;5037211;28;20041;-68
2022/11/23 10:42:53;;;;;;;7.75;1.27;;;9.60;99.90;;;;;;5028719;28;20628;-67
2022/11/23 10:45:22;;;;;;;6.07;1.27;;;9.70;99.90;;;;;;5046929;28;20040;-74
2022/11/23 10:47:58;;;;;;;4.57;1.08;;;9.90;99.90;;;;;;5045078;28;20075;-68
2022/11/23 10:50:43;;;;;;;6.68;1.25;;;10.00;99.90;;;;;;5043191;28;20029;-69
2022/11/23 10:53:18;;;;;;;5.03;1.10;;;10.10;99.90;;;;;;5048495;28;20457;-67
2022/11/23 10:55:58;;;;;;;5.15;1.25;;;9.90;99.90;;;;;;5034743;28;20044;-64
2022/11/23 10:58:28;;;;;;;5.05;1.50;;;9.80;99.90;;;;;;5028768;28;20159;-67
2022/11/23 11:01:12;;;;;;;4.07;1.35;;;10.00;99.90;;;;;;5034974;28;20049;-65
2022/11/23 11:03:38;;;;;;;8.50;1.52;;;10.30;99.90;;;;;;5025958;28;20029;-66
2022/11/23 11:06:04;;;;;;;7.25;1.38;;;10.30;99.90;;;;;;5029200;28;20082;-66
2022/11/23 11:08:35;;;;;;;8.25;1.48;;;10.30;99.90;;;;;;5039996;28;20166;-69
2022/11/23 11:11:05;;;;;;;7.18;1.30;;;10.50;99.90;;;;;;5035744;28;20083;-68
2022/11/23 11:13:44;;;;;;;4.72;1.30;;;10.70;99.90;;;;;;5046113;28;20061;-68
2022/11/23 11:16:18;;;;;;;5.95;1.38;;;10.90;99.90;;;;;;5040697;28;20082;-70
2022/11/23 11:18:44;;;;;;;6.32;1.45;;;10.70;99.90;;;;;;5037460;28;20084;-65
2022/11/23 11:21:42;;;;;;;4.20;1.08;;;10.80;99.90;;;;;;5048067;28;20584;-68
2022/11/23 11:24:20;;;;;;;3.35;1.05;;;10.70;99.90;;;;;;5007669;28;20046;-65
2022/11/23 11:26:56;;;;;;;5.32;0.85;;;10.50;99.90;;;;;;5028669;28;20038;-67
2022/11/23 11:29:29;;;;;;;6.18;1.15;;;10.50;99.90;;;;;;5028509;28;20117;-73
2022/11/23 11:32:13;;;;;;;4.57;1.05;;;10.70;99.90;;;;;;5027826;28;20120;-67
2022/11/23 11:34:52;;;;;;;5.57;1.00;;;10.90;99.90;;;;;;5027855;28;20026;-66
2022/11/23 11:37:46;;;;;;;7.57;1.10;;;10.80;99.90;;;;;;5028168;28;20371;-66
2022/11/23 11:40:38;;;;;;;5.28;1.13;;;10.80;99.90;;;;;;5026804;28;20076;-71
2022/11/23 11:43:04;;;;;;;3.85;0.80;;;10.90;99.90;;;;;;5029104;28;20045;-66
2022/11/23 11:45:43;;;;;;;4.95;0.85;;;11.00;99.90;;;;;;5037259;28;20036;-70
2022/11/23 11:48:29;;;;;;;5.43;1.02;;;10.80;99.90;;;;;;5028853;28;20045;-64
2022/11/23 11:50:59;;;;;;;4.43;0.80;;;10.80;99.90;;;;;;5031091;28;20029;-67
2022/11/23 11:53:50;;;;;;;2.92;0.85;;;10.90;99.90;;;;;;5041754;28;20032;-71
2022/11/23 11:56:29;;;;;;;4.50;0.90;;;11.10;99.90;;;;;;5032424;28;20498;-66
2022/11/23 11:59:12;;;;;;;3.15;0.60;;;11.30;99.90;;;;;;5031280;28;20025;-68
2022/11/23 12:02:08;;;;;;;4.50;0.95;;;11.10;99.90;;;;;;5033612;28;20042;-67
2022/11/23 12:04:38;;;;;;;1.75;0.60;;;11.00;99.90;;;;;;5031470;28;20053;-68
2022/11/23 12:07:33;;;;;;;2.75;0.93;;;11.10;99.90;;;;;;5048245;28;20024;-66
2022/11/23 12:10:11;;;;;;;4.57;0.75;;;11.20;99.90;;;;;;5027429;28;20044;-65
2022/11/23 12:12:38;;;;;;;4.65;1.00;;;11.10;99.90;;;;;;5017481;28;20052;-66
2022/11/23 12:15:05;;;;;;;3.13;0.88;;;11.20;99.90;;;;;;5035578;28;20061;-64
2022/11/23 12:17:39;;;;;;;5.00;0.90;;;11.20;99.90;;;;;;5047996;28;20037;-68
2022/11/23 12:20:22;;;;;;;4.00;0.85;;;11.20;99.90;;;;;;5026685;28;20041;-65
2022/11/23 12:23:01;;;;;;;4.90;0.95;;;11.40;99.90;;;;;;5046880;28;20031;-64
2022/11/23 12:25:42;;;;;;;4.22;0.80;;;11.20;99.90;;;;;;5040924;28;20025;-71
2022/11/23 12:28:59;;;;;;;4.03;0.90;;;11.40;99.90;;;;;;5038130;28;20043;-65
2022/11/23 12:31:38;;;;;;;1.90;0.60;;;11.20;99.90;;;;;;5003858;28;20048;-72
2022/11/23 12:34:09;;;;;;;2.13;0.52;;;11.30;99.10;;;;;;5031084;28;20049;-66
2022/11/23 12:37:02;;;;;;;3.00;0.52;;;11.40;99.60;;;;;;5040270;28;20398;-66
2022/11/23 12:39:56;;;;;;;2.90;0.57;;;11.20;98.40;;;;;;5033404;28;20104;-72
2022/11/23 12:42:31;;;;;;;6.82;0.90;;;11.00;97.50;;;;;;5027127;28;20037;-66
2022/11/23 12:45:21;;;;;;;2.35;0.47;;;10.90;98.50;;;;;;5025420;28;20088;-69
2022/11/23 12:48:28;;;;;;;2.73;0.60;;;10.90;97.70;;;;;;5027405;28;20632;-68
2022/11/23 12:51:02;;;;;;;2.25;0.50;;;10.90;99.20;;;;;;5041619;28;20287;-65
2022/11/23 12:53:32;;;;;;;4.75;0.52;;;10.80;97.40;;;;;;5038097;28;20485;-74
2022/11/23 12:56:13;;;;;;;5.57;0.63;;;10.80;99.00;;;;;;5048240;28;20478;-64